PWSweather.com
Personal Weather Stations
Station Observations

ChardChardGB

Lat: 50.877408, Lon: -2.94964741

Elevation: 341

Station Type: WS3083

http://www.merriott-astro.co.uk/weather/index.htm

High Low Average
Temperature 43.5°F6.4°C 29.1°F-1.6°C 36.4°F2.4°C
Dew Point 39.0°F3.9°C 18.7°F-7.4°C 28.4°F-2.0°C
Winds 18.9 mph 30.4 kmh Calm Calm 11.0 mph NE17.7 kmh NE
Wind Gusts 29.8 mph48.0 kmh -- 14.0 mph22.5 kmh
Humidity 84% 59% 73%
Pressure 29.33 in993.2 mb 29.21 in989.2 mb -
Precipitation 0.02 in0.5 mm - -
Hour Temp Dew Point Humidity Winds Wind Gusts Pressure Precip Precip Rate Daily Precip Total
12:00 AM 43.3°F6.3°C 38.8°F3.8°C 84% 1.0 mph ENE1.6 kmh ENE 3.8 mph6.1 kmh 29.21 in989.2 mb 0.00 in0.0 mm 0.00 in0.0 mm 0.00 in0.0 mm
12:10 AM 43.3°F6.3°C 38.8°F3.8°C 84% Calm Calm -- 29.22 in989.5 mb 0.00 in0.0 mm 0.00 in0.0 mm 0.00 in0.0 mm
12:20 AM 43.3°F6.3°C 38.8°F3.8°C 84% Calm Calm -- 29.21 in989.2 mb 0.00 in0.0 mm 0.00 in0.0 mm 0.00 in0.0 mm
12:30 AM 43.3°F6.3°C 38.8°F3.8°C 84% Calm Calm -- 29.21 in989.2 mb 0.00 in0.0 mm 0.00 in0.0 mm 0.00 in0.0 mm
12:40 AM 43.3°F6.3°C 38.8°F3.8°C 84% Calm Calm -- 29.22 in989.5 mb 0.00 in0.0 mm 0.00 in0.0 mm 0.00 in0.0 mm
12:50 AM 43.2°F6.2°C 38.7°F3.7°C 84% Calm Calm -- 29.21 in989.2 mb 0.00 in0.0 mm 0.00 in0.0 mm 0.00 in0.0 mm
01:00 AM 42.8°F6.0°C 38.3°F3.5°C 84% Calm Calm -- 29.21 in989.2 mb 0.00 in0.0 mm 0.00 in0.0 mm 0.00 in0.0 mm
01:10 AM 43.0°F6.1°C 38.5°F3.6°C 84% Calm Calm -- 29.22 in989.5 mb 0.00 in0.0 mm 0.00 in0.0 mm 0.00 in0.0 mm
01:20 AM 43.0°F6.1°C 38.5°F3.6°C 84% Calm Calm -- 29.22 in989.5 mb 0.00 in0.0 mm 0.00 in0.0 mm 0.00 in0.0 mm
01:30 AM 43.2°F6.2°C 38.7°F3.7°C 84% Calm Calm -- 29.22 in989.5 mb 0.00 in0.0 mm 0.00 in0.0 mm 0.00 in0.0 mm
01:40 AM 43.2°F6.2°C 38.7°F3.7°C 84% Calm Calm -- 29.22 in989.5 mb 0.00 in0.0 mm 0.00 in0.0 mm 0.00 in0.0 mm
01:50 AM 43.2°F6.2°C 38.7°F3.7°C 84% 2.1 mph NE3.4 kmh NE 6.0 mph9.7 kmh 29.22 in989.5 mb 0.00 in0.0 mm 0.00 in0.0 mm 0.00 in0.0 mm
02:00 AM 43.2°F6.2°C 38.7°F3.7°C 84% 3.0 mph NE4.8 kmh NE 5.4 mph8.7 kmh 29.22 in989.5 mb 0.00 in0.0 mm 0.00 in0.0 mm 0.00 in0.0 mm
02:10 AM 43.2°F6.2°C 38.7°F3.7°C 84% 0.9 mph ENE1.4 kmh ENE 3.8 mph6.1 kmh 29.22 in989.5 mb 0.00 in0.0 mm 0.00 in0.0 mm 0.00 in0.0 mm
02:20 AM 43.3°F6.3°C 38.8°F3.8°C 84% 0.4 mph NE0.6 kmh NE 3.1 mph5.0 kmh 29.21 in989.2 mb 0.00 in0.0 mm 0.00 in0.0 mm 0.00 in0.0 mm
02:30 AM 43.5°F6.4°C 39.0°F3.9°C 84% 0.3 mph N0.5 kmh N 3.1 mph5.0 kmh 29.21 in989.2 mb 0.00 in0.0 mm 0.00 in0.0 mm 0.00 in0.0 mm
02:40 AM 43.5°F6.4°C 39.0°F3.9°C 84% 1.5 mph NE2.4 kmh NE 5.4 mph8.7 kmh 29.21 in989.2 mb 0.00 in0.0 mm 0.00 in0.0 mm 0.00 in0.0 mm
02:50 AM 43.5°F6.4°C 39.0°F3.9°C 84% 3.2 mph NE5.1 kmh NE 6.0 mph9.7 kmh 29.22 in989.5 mb 0.00 in0.0 mm 0.00 in0.0 mm 0.00 in0.0 mm
03:00 AM 43.5°F6.4°C 39.0°F3.9°C 84% 1.0 mph NE1.6 kmh NE 3.8 mph6.1 kmh 29.22 in989.5 mb 0.01 in0.3 mm 0.01 in0.3 mm 0.01 in0.3 mm
03:10 AM 43.5°F6.4°C 39.0°F3.9°C 84% 3.9 mph NE6.3 kmh NE 7.6 mph12.2 kmh 29.21 in989.2 mb 0.01 in0.3 mm 0.00 in0.0 mm 0.01 in0.3 mm
03:20 AM 43.3°F6.3°C 38.8°F3.8°C 84% 2.3 mph NE3.7 kmh NE 4.5 mph7.2 kmh 29.21 in989.2 mb 0.02 in0.5 mm 0.06 in1.5 mm 0.02 in0.5 mm
03:30 AM 43.3°F6.3°C 38.8°F3.8°C 84% 3.0 mph NE4.8 kmh NE 5.4 mph8.7 kmh 29.21 in989.2 mb 0.02 in0.5 mm 0.00 in0.0 mm 0.02 in0.5 mm
03:40 AM 43.3°F6.3°C 38.8°F3.8°C 84% 2.3 mph ENE3.7 kmh ENE 6.9 mph11.1 kmh 29.21 in989.2 mb 0.02 in0.5 mm 0.00 in0.0 mm 0.02 in0.5 mm
03:50 AM 43.2°F6.2°C 38.4°F3.6°C 83% 6.2 mph NE10.0 kmh NE 8.3 mph13.4 kmh 29.21 in989.2 mb 0.02 in0.5 mm 0.00 in0.0 mm 0.02 in0.5 mm
04:00 AM 43.0°F6.1°C 38.2°F3.4°C 83% 4.0 mph NE6.4 kmh NE 6.9 mph11.1 kmh 29.21 in989.2 mb 0.01 in0.3 mm 0.00 in0.0 mm 0.02 in0.5 mm
04:10 AM 43.2°F6.2°C 38.4°F3.6°C 83% 3.5 mph ENE5.6 kmh ENE 6.9 mph11.1 kmh 29.22 in989.5 mb 0.01 in0.3 mm 0.00 in0.0 mm 0.02 in0.5 mm
04:20 AM 43.2°F6.2°C 38.4°F3.6°C 83% 7.7 mph NE12.4 kmh NE 9.8 mph15.8 kmh 29.22 in989.5 mb 0.00 in0.0 mm 0.00 in0.0 mm 0.02 in0.5 mm
04:30 AM 43.2°F6.2°C 38.7°F3.7°C 84% 9.0 mph ENE14.5 kmh ENE 11.4 mph18.3 kmh 29.23 in989.8 mb 0.00 in0.0 mm 0.00 in0.0 mm 0.02 in0.5 mm
04:40 AM 43.2°F6.2°C 38.7°F3.7°C 84% 11.8 mph NE19.0 kmh NE 13.0 mph20.9 kmh 29.22 in989.5 mb 0.00 in0.0 mm 0.00 in0.0 mm 0.02 in0.5 mm
04:50 AM 43.2°F6.2°C 38.7°F3.7°C 84% 13.0 mph NE20.9 kmh NE 13.0 mph20.9 kmh 29.22 in989.5 mb 0.00 in0.0 mm 0.00 in0.0 mm 0.02 in0.5 mm
05:00 AM 43.2°F6.2°C 38.7°F3.7°C 84% 13.0 mph NE20.9 kmh NE 13.0 mph20.9 kmh 29.22 in989.5 mb 0.00 in0.0 mm 0.00 in0.0 mm 0.02 in0.5 mm
05:10 AM 43.2°F6.2°C 38.7°F3.7°C 84% 13.0 mph NE20.9 kmh NE 13.0 mph20.9 kmh 29.21 in989.2 mb 0.00 in0.0 mm 0.00 in0.0 mm 0.02 in0.5 mm
05:20 AM 43.2°F6.2°C 38.7°F3.7°C 84% 13.0 mph NE20.9 kmh NE 13.0 mph20.9 kmh 29.22 in989.5 mb 0.00 in0.0 mm 0.00 in0.0 mm 0.02 in0.5 mm
05:30 AM 43.2°F6.2°C 38.7°F3.7°C 84% 13.0 mph NE20.9 kmh NE 13.0 mph20.9 kmh 29.22 in989.5 mb 0.00 in0.0 mm 0.00 in0.0 mm 0.02 in0.5 mm
05:40 AM 43.2°F6.2°C 38.7°F3.7°C 84% 13.0 mph NE20.9 kmh NE 13.0 mph20.9 kmh 29.22 in989.5 mb 0.00 in0.0 mm 0.00 in0.0 mm 0.02 in0.5 mm
05:50 AM 43.2°F6.2°C 38.7°F3.7°C 84% 13.0 mph NE20.9 kmh NE 13.0 mph20.9 kmh 29.22 in989.5 mb 0.00 in0.0 mm 0.00 in0.0 mm 0.02 in0.5 mm
06:00 AM 43.2°F6.2°C 38.7°F3.7°C 84% 13.0 mph NE20.9 kmh NE 13.0 mph20.9 kmh 29.22 in989.5 mb 0.00 in0.0 mm 0.00 in0.0 mm 0.02 in0.5 mm
06:10 AM 43.2°F6.2°C 38.7°F3.7°C 84% 13.0 mph NE20.9 kmh NE 13.0 mph20.9 kmh 29.22 in989.5 mb 0.00 in0.0 mm 0.00 in0.0 mm 0.02 in0.5 mm
06:20 AM 43.2°F6.2°C 38.7°F3.7°C 84% 13.0 mph NE20.9 kmh NE 13.0 mph20.9 kmh 29.22 in989.5 mb 0.00 in0.0 mm 0.00 in0.0 mm 0.02 in0.5 mm
06:30 AM 43.2°F6.2°C 38.7°F3.7°C 84% 13.0 mph NE20.9 kmh NE 13.0 mph20.9 kmh 29.22 in989.5 mb 0.00 in0.0 mm 0.00 in0.0 mm 0.02 in0.5 mm
06:40 AM 43.2°F6.2°C 38.7°F3.7°C 84% 13.0 mph NE20.9 kmh NE 13.0 mph20.9 kmh 29.23 in989.8 mb 0.00 in0.0 mm 0.00 in0.0 mm 0.02 in0.5 mm
06:50 AM 43.2°F6.2°C 38.7°F3.7°C 84% 13.0 mph NE20.9 kmh NE 13.0 mph20.9 kmh 29.23 in989.8 mb 0.00 in0.0 mm 0.00 in0.0 mm 0.02 in0.5 mm
07:00 AM 43.2°F6.2°C 38.7°F3.7°C 84% 13.0 mph NE20.9 kmh NE 13.0 mph20.9 kmh 29.24 in990.2 mb 0.00 in0.0 mm 0.00 in0.0 mm 0.02 in0.5 mm
07:10 AM 43.2°F6.2°C 38.7°F3.7°C 84% 13.0 mph NE20.9 kmh NE 13.0 mph20.9 kmh 29.24 in990.2 mb 0.00 in0.0 mm 0.00 in0.0 mm 0.02 in0.5 mm
07:20 AM 43.2°F6.2°C 38.7°F3.7°C 84% 13.0 mph NE20.9 kmh NE 13.0 mph20.9 kmh 29.25 in990.5 mb 0.00 in0.0 mm 0.00 in0.0 mm 0.02 in0.5 mm
07:30 AM 43.2°F6.2°C 38.7°F3.7°C 84% 13.0 mph NE20.9 kmh NE 13.0 mph20.9 kmh 29.26 in990.9 mb 0.00 in0.0 mm 0.00 in0.0 mm 0.02 in0.5 mm
07:40 AM 43.2°F6.2°C 38.7°F3.7°C 84% 13.0 mph NE20.9 kmh NE 13.0 mph20.9 kmh 29.26 in990.9 mb 0.00 in0.0 mm 0.00 in0.0 mm 0.02 in0.5 mm
07:50 AM 43.2°F6.2°C 38.7°F3.7°C 84% 13.0 mph NE20.9 kmh NE 13.0 mph20.9 kmh 29.27 in991.2 mb 0.00 in0.0 mm 0.00 in0.0 mm 0.02 in0.5 mm
08:00 AM 43.2°F6.2°C 38.7°F3.7°C 84% 13.0 mph NE20.9 kmh NE 13.0 mph20.9 kmh 29.27 in991.2 mb 0.00 in0.0 mm 0.00 in0.0 mm 0.02 in0.5 mm
08:10 AM 43.2°F6.2°C 38.7°F3.7°C 84% 13.0 mph NE20.9 kmh NE 13.0 mph20.9 kmh 29.28 in991.5 mb 0.00 in0.0 mm 0.00 in0.0 mm 0.02 in0.5 mm
08:20 AM 43.2°F6.2°C 38.7°F3.7°C 84% 13.0 mph NE20.9 kmh NE 13.0 mph20.9 kmh 29.28 in991.5 mb 0.00 in0.0 mm 0.00 in0.0 mm 0.02 in0.5 mm
08:30 AM 36.9°F2.7°C 31.0°F-0.6°C 79% 13.6 mph ENE21.9 kmh ENE 19.0 mph30.6 kmh 29.28 in991.5 mb 0.00 in0.0 mm 0.00 in0.0 mm 0.01 in0.3 mm
08:40 AM 36.5°F2.5°C 30.3°F-0.9°C 78% 16.1 mph NE25.9 kmh NE 19.0 mph30.6 kmh 29.29 in991.9 mb 0.00 in0.0 mm 0.00 in0.0 mm 0.01 in0.3 mm
08:50 AM 36.5°F2.5°C 30.3°F-0.9°C 78% 14.8 mph NE23.8 kmh NE 17.4 mph28.0 kmh 29.29 in991.9 mb 0.00 in0.0 mm 0.00 in0.0 mm 0.01 in0.3 mm
09:00 AM 36.1°F2.3°C 29.6°F-1.3°C 77% 13.5 mph NE21.7 kmh NE 16.8 mph27.0 kmh 29.29 in991.9 mb 0.00 in0.0 mm 0.00 in0.0 mm 0.01 in0.3 mm
09:10 AM 36.1°F2.3°C 29.3°F-1.5°C 76% 14.9 mph NE24.0 kmh NE 16.8 mph27.0 kmh 29.29 in991.9 mb 0.00 in0.0 mm 0.00 in0.0 mm 0.01 in0.3 mm
09:20 AM 36.1°F2.3°C 29.0°F-1.7°C 75% 13.5 mph E21.7 kmh E 20.6 mph33.2 kmh 29.29 in991.9 mb 0.00 in0.0 mm 0.00 in0.0 mm 0.02 in0.5 mm
09:30 AM 36.0°F2.2°C 28.2°F-2.1°C 73% 17.0 mph NE27.4 kmh NE 25.9 mph41.7 kmh 29.29 in991.9 mb 0.01 in0.3 mm 0.06 in1.5 mm 0.02 in0.5 mm
09:40 AM 36.0°F2.2°C 27.8°F-2.3°C 72% 14.6 mph NE23.5 kmh NE 18.3 mph29.5 kmh 29.29 in991.9 mb 0.01 in0.3 mm 0.00 in0.0 mm 0.02 in0.5 mm
09:50 AM 36.1°F2.3°C 27.7°F-2.4°C 71% 17.8 mph ENE28.6 kmh ENE 22.8 mph36.7 kmh 29.30 in992.2 mb 0.01 in0.3 mm 0.00 in0.0 mm 0.02 in0.5 mm
10:00 AM 36.3°F2.4°C 27.5°F-2.5°C 70% 14.8 mph NE23.8 kmh NE 18.3 mph29.5 kmh 29.31 in992.6 mb 0.01 in0.3 mm 0.00 in0.0 mm 0.02 in0.5 mm
10:10 AM 36.0°F2.2°C 27.1°F-2.7°C 70% 14.7 mph NE23.7 kmh NE 18.3 mph29.5 kmh 29.30 in992.2 mb 0.01 in0.3 mm 0.00 in0.0 mm 0.02 in0.5 mm
10:20 AM 35.8°F2.1°C 26.6°F-3.0°C 69% 15.6 mph NE25.1 kmh NE 20.6 mph33.2 kmh 29.31 in992.6 mb 0.00 in0.0 mm 0.00 in0.0 mm 0.02 in0.5 mm
10:30 AM 35.8°F2.1°C 26.3°F-3.2°C 68% 16.8 mph NE27.0 kmh NE 22.1 mph35.6 kmh 29.30 in992.2 mb 0.00 in0.0 mm 0.00 in0.0 mm 0.02 in0.5 mm
10:40 AM 36.0°F2.2°C 26.4°F-3.1°C 68% 13.9 mph ENE22.4 kmh ENE 19.7 mph31.7 kmh 29.31 in992.6 mb 0.00 in0.0 mm 0.00 in0.0 mm 0.02 in0.5 mm
10:50 AM 35.2°F1.8°C 25.4°F-3.7°C 67% 14.9 mph NE24.0 kmh NE 18.3 mph29.5 kmh 29.32 in992.9 mb 0.00 in0.0 mm 0.00 in0.0 mm 0.02 in0.5 mm
11:00 AM 35.1°F1.7°C 25.6°F-3.6°C 68% 14.1 mph NE22.7 kmh NE 18.3 mph29.5 kmh 29.31 in992.6 mb 0.00 in0.0 mm 0.00 in0.0 mm 0.02 in0.5 mm
11:10 AM 34.7°F1.5°C 25.6°F-3.6°C 69% 14.2 mph NE22.9 kmh NE 18.3 mph29.5 kmh 29.32 in992.9 mb 0.00 in0.0 mm 0.00 in0.0 mm 0.02 in0.5 mm
11:20 AM 34.9°F1.6°C 25.8°F-3.4°C 69% 12.4 mph NE20.0 kmh NE 13.6 mph21.9 kmh 29.32 in992.9 mb 0.00 in0.0 mm 0.00 in0.0 mm 0.02 in0.5 mm
11:30 AM 34.9°F1.6°C 25.4°F-3.7°C 68% 13.9 mph NE22.4 kmh NE 21.3 mph34.3 kmh 29.32 in992.9 mb 0.00 in0.0 mm 0.00 in0.0 mm 0.02 in0.5 mm
11:40 AM 34.3°F1.3°C 25.2°F-3.8°C 69% 15.6 mph NE25.1 kmh NE 18.3 mph29.5 kmh 29.31 in992.6 mb 0.00 in0.0 mm 0.00 in0.0 mm 0.02 in0.5 mm
11:50 AM 34.2°F1.2°C 25.4°F-3.7°C 70% 14.7 mph NE23.7 kmh NE 19.0 mph30.6 kmh 29.32 in992.9 mb 0.00 in0.0 mm 0.00 in0.0 mm 0.02 in0.5 mm
12:00 PM 33.6°F0.9°C 25.6°F-3.6°C 72% 15.0 mph NE24.1 kmh NE 17.4 mph28.0 kmh 29.32 in992.9 mb 0.00 in0.0 mm 0.00 in0.0 mm 0.02 in0.5 mm
12:10 PM 33.3°F0.7°C 25.2°F-3.8°C 72% 16.0 mph ENE25.7 kmh ENE 19.7 mph31.7 kmh 29.32 in992.9 mb 0.00 in0.0 mm 0.00 in0.0 mm 0.02 in0.5 mm
12:20 PM 33.4°F0.8°C 25.4°F-3.7°C 72% 15.2 mph NE24.5 kmh NE 20.6 mph33.2 kmh 29.33 in993.2 mb 0.00 in0.0 mm 0.00 in0.0 mm 0.02 in0.5 mm
12:30 PM 33.6°F0.9°C 25.2°F-3.8°C 71% 15.5 mph ENE24.9 kmh ENE 20.6 mph33.2 kmh 29.32 in992.9 mb 0.00 in0.0 mm 0.00 in0.0 mm 0.02 in0.5 mm
12:40 PM 33.8°F1.0°C 24.4°F-4.2°C 68% 18.0 mph NE29.0 kmh NE 21.3 mph34.3 kmh 29.32 in992.9 mb 0.00 in0.0 mm 0.00 in0.0 mm 0.02 in0.5 mm
12:50 PM 33.8°F1.0°C 24.0°F-4.4°C 67% 17.7 mph NE28.5 kmh NE 22.1 mph35.6 kmh 29.31 in992.6 mb 0.00 in0.0 mm 0.00 in0.0 mm 0.02 in0.5 mm
01:00 PM 33.6°F0.9°C 23.5°F-4.7°C 66% 17.5 mph NE28.2 kmh NE 22.1 mph35.6 kmh 29.31 in992.6 mb 0.00 in0.0 mm 0.00 in0.0 mm 0.02 in0.5 mm
01:10 PM 33.6°F0.9°C 23.9°F-4.5°C 67% 16.2 mph NE26.1 kmh NE 22.1 mph35.6 kmh 29.31 in992.6 mb 0.00 in0.0 mm 0.00 in0.0 mm 0.02 in0.5 mm
01:20 PM 34.0°F1.1°C 23.8°F-4.6°C 66% 15.8 mph ENE25.4 kmh ENE 22.8 mph36.7 kmh 29.30 in992.2 mb 0.00 in0.0 mm 0.00 in0.0 mm 0.02 in0.5 mm
01:30 PM 34.0°F1.1°C 23.5°F-4.7°C 65% 13.8 mph NE22.2 kmh NE 17.4 mph28.0 kmh 29.30 in992.2 mb 0.00 in0.0 mm 0.00 in0.0 mm 0.02 in0.5 mm
01:40 PM 33.6°F0.9°C 23.1°F-4.9°C 65% 13.5 mph NE21.7 kmh NE 16.8 mph27.0 kmh 29.31 in992.6 mb 0.00 in0.0 mm 0.00 in0.0 mm 0.02 in0.5 mm
01:50 PM 33.4°F0.8°C 23.0°F-5.0°C 65% 18.1 mph NNE29.1 kmh NNE 24.4 mph39.3 kmh 29.30 in992.2 mb 0.00 in0.0 mm 0.00 in0.0 mm 0.02 in0.5 mm
02:00 PM 33.4°F0.8°C 23.0°F-5.0°C 65% 15.2 mph NE24.5 kmh NE 21.3 mph34.3 kmh 29.30 in992.2 mb 0.00 in0.0 mm 0.00 in0.0 mm 0.02 in0.5 mm
02:10 PM 33.8°F1.0°C 22.9°F-5.1°C 64% 15.0 mph NE24.1 kmh NE 20.6 mph33.2 kmh 29.31 in992.6 mb 0.00 in0.0 mm 0.00 in0.0 mm 0.02 in0.5 mm
02:20 PM 34.0°F1.1°C 22.7°F-5.2°C 63% 12.7 mph NE20.4 kmh NE 18.3 mph29.5 kmh 29.30 in992.2 mb 0.00 in0.0 mm 0.00 in0.0 mm 0.02 in0.5 mm
02:30 PM 34.0°F1.1°C 22.4°F-5.3°C 62% 14.5 mph ENE23.3 kmh ENE 16.8 mph27.0 kmh 29.30 in992.2 mb 0.00 in0.0 mm 0.00 in0.0 mm 0.02 in0.5 mm
02:40 PM 33.4°F0.8°C 22.2°F-5.4°C 63% 13.7 mph NE22.0 kmh NE 19.0 mph30.6 kmh 29.30 in992.2 mb 0.00 in0.0 mm 0.00 in0.0 mm 0.02 in0.5 mm
02:50 PM 33.4°F0.8°C 22.2°F-5.4°C 63% 15.4 mph NE24.8 kmh NE 19.0 mph30.6 kmh 29.30 in992.2 mb 0.00 in0.0 mm 0.00 in0.0 mm 0.02 in0.5 mm
03:00 PM 33.4°F0.8°C 21.8°F-5.7°C 62% 14.6 mph NE23.5 kmh NE 17.4 mph28.0 kmh 29.30 in992.2 mb 0.00 in0.0 mm 0.00 in0.0 mm 0.02 in0.5 mm
03:10 PM 33.6°F0.9°C 21.6°F-5.8°C 61% 16.1 mph NE25.9 kmh NE 19.7 mph31.7 kmh 29.29 in991.9 mb 0.00 in0.0 mm 0.00 in0.0 mm 0.02 in0.5 mm
03:20 PM 33.6°F0.9°C 22.0°F-5.6°C 62% 15.4 mph NE24.8 kmh NE 18.3 mph29.5 kmh 29.30 in992.2 mb 0.00 in0.0 mm 0.00 in0.0 mm 0.02 in0.5 mm
03:30 PM 33.6°F0.9°C 22.4°F-5.3°C 63% 13.2 mph NE21.2 kmh NE 15.9 mph25.6 kmh 29.29 in991.9 mb 0.00 in0.0 mm 0.00 in0.0 mm 0.02 in0.5 mm
03:40 PM 33.3°F0.7°C 21.7°F-5.7°C 62% 15.6 mph NE25.1 kmh NE 19.0 mph30.6 kmh 29.29 in991.9 mb 0.00 in0.0 mm 0.00 in0.0 mm 0.02 in0.5 mm
03:50 PM 33.1°F0.6°C 21.5°F-5.8°C 62% 16.5 mph NE26.6 kmh NE 29.8 mph48.0 kmh 29.30 in992.2 mb 0.00 in0.0 mm 0.00 in0.0 mm 0.02 in0.5 mm
04:00 PM 32.9°F0.5°C 21.3°F-5.9°C 62% 16.2 mph ENE26.1 kmh ENE 21.3 mph34.3 kmh 29.30 in992.2 mb 0.00 in0.0 mm 0.00 in0.0 mm 0.02 in0.5 mm
04:10 PM 32.7°F0.4°C 21.2°F-6.0°C 62% 18.9 mph NE30.4 kmh NE 23.5 mph37.8 kmh 29.30 in992.2 mb 0.00 in0.0 mm 0.00 in0.0 mm 0.02 in0.5 mm
04:20 PM 32.5°F0.3°C 21.0°F-6.1°C 62% 18.3 mph NE29.5 kmh NE 23.5 mph37.8 kmh 29.29 in991.9 mb 0.00 in0.0 mm 0.00 in0.0 mm 0.02 in0.5 mm
04:30 PM 32.5°F0.3°C 21.0°F-6.1°C 62% 14.9 mph NE24.0 kmh NE 22.1 mph35.6 kmh 29.30 in992.2 mb 0.00 in0.0 mm 0.00 in0.0 mm 0.02 in0.5 mm
04:40 PM 32.4°F0.2°C 20.8°F-6.2°C 62% 17.1 mph NE27.5 kmh NE 19.7 mph31.7 kmh 29.29 in991.9 mb 0.00 in0.0 mm 0.00 in0.0 mm 0.02 in0.5 mm
04:50 PM 32.2°F0.1°C 20.7°F-6.3°C 62% 15.1 mph NE24.3 kmh NE 19.7 mph31.7 kmh 29.30 in992.2 mb 0.00 in0.0 mm 0.00 in0.0 mm 0.02 in0.5 mm
05:00 PM 32.2°F0.1°C 20.7°F-6.3°C 62% 13.3 mph NE21.4 kmh NE 16.8 mph27.0 kmh 29.30 in992.2 mb 0.00 in0.0 mm 0.00 in0.0 mm 0.02 in0.5 mm
05:10 PM 32.2°F0.1°C 20.3°F-6.5°C 61% 14.1 mph ENE22.7 kmh ENE 19.7 mph31.7 kmh 29.30 in992.2 mb 0.00 in0.0 mm 0.00 in0.0 mm 0.02 in0.5 mm
05:20 PM 32.2°F0.1°C 19.9°F-6.7°C 60% 15.2 mph NE24.5 kmh NE 21.3 mph34.3 kmh 29.30 in992.2 mb 0.00 in0.0 mm 0.00 in0.0 mm 0.02 in0.5 mm
05:30 PM 32.2°F0.1°C 19.5°F-6.9°C 59% 14.0 mph NE22.5 kmh NE 17.4 mph28.0 kmh 29.31 in992.6 mb 0.00 in0.0 mm 0.00 in0.0 mm 0.02 in0.5 mm
05:40 PM 32.2°F0.1°C 19.5°F-6.9°C 59% 12.8 mph NE20.6 kmh NE 19.0 mph30.6 kmh 29.31 in992.6 mb 0.00 in0.0 mm 0.00 in0.0 mm 0.02 in0.5 mm
05:50 PM 32.0°F0.0°C 19.7°F-6.8°C 60% 14.5 mph NE23.3 kmh NE 17.4 mph28.0 kmh 29.32 in992.9 mb 0.00 in0.0 mm 0.00 in0.0 mm 0.02 in0.5 mm
06:00 PM 31.8°F-0.1°C 20.3°F-6.5°C 62% 10.8 mph ENE17.4 kmh ENE 15.9 mph25.6 kmh 29.31 in992.6 mb 0.00 in0.0 mm 0.00 in0.0 mm 0.02 in0.5 mm
06:10 PM 31.6°F-0.2°C 20.1°F-6.6°C 62% 11.3 mph NE18.2 kmh NE 14.5 mph23.3 kmh 29.31 in992.6 mb 0.00 in0.0 mm 0.00 in0.0 mm 0.02 in0.5 mm
06:20 PM 31.6°F-0.2°C 19.8°F-6.8°C 61% 13.7 mph NE22.0 kmh NE 19.0 mph30.6 kmh 29.31 in992.6 mb 0.00 in0.0 mm 0.00 in0.0 mm 0.02 in0.5 mm
06:30 PM 31.6°F-0.2°C 19.4°F-7.0°C 60% 14.2 mph NE22.9 kmh NE 18.3 mph29.5 kmh 29.31 in992.6 mb 0.00 in0.0 mm 0.00 in0.0 mm 0.02 in0.5 mm
06:40 PM 31.6°F-0.2°C 19.4°F-7.0°C 60% 12.1 mph NNE19.5 kmh NNE 19.7 mph31.7 kmh 29.31 in992.6 mb 0.00 in0.0 mm 0.00 in0.0 mm 0.02 in0.5 mm
06:50 PM 31.6°F-0.2°C 19.4°F-7.0°C 60% 13.7 mph NE22.0 kmh NE 16.8 mph27.0 kmh 29.31 in992.6 mb 0.00 in0.0 mm 0.00 in0.0 mm 0.02 in0.5 mm
07:00 PM 31.5°F-0.3°C 19.6°F-6.9°C 61% 9.2 mph ENE14.8 kmh ENE 14.5 mph23.3 kmh 29.31 in992.6 mb 0.00 in0.0 mm 0.00 in0.0 mm 0.02 in0.5 mm
07:10 PM 31.5°F-0.3°C 19.2°F-7.1°C 60% 13.9 mph ENE22.4 kmh ENE 19.7 mph31.7 kmh 29.31 in992.6 mb 0.00 in0.0 mm 0.00 in0.0 mm 0.02 in0.5 mm
07:20 PM 31.5°F-0.3°C 19.2°F-7.1°C 60% 11.3 mph ENE18.2 kmh ENE 16.8 mph27.0 kmh 29.31 in992.6 mb 0.00 in0.0 mm 0.00 in0.0 mm 0.02 in0.5 mm
07:30 PM 31.3°F-0.4°C 19.0°F-7.2°C 60% 11.3 mph ENE18.2 kmh ENE 16.8 mph27.0 kmh 29.32 in992.9 mb 0.00 in0.0 mm 0.00 in0.0 mm 0.02 in0.5 mm
07:40 PM 31.3°F-0.4°C 19.0°F-7.2°C 60% 12.2 mph E19.6 kmh E 15.9 mph25.6 kmh 29.32 in992.9 mb 0.00 in0.0 mm 0.00 in0.0 mm 0.02 in0.5 mm
07:50 PM 31.3°F-0.4°C 19.0°F-7.2°C 60% 11.3 mph NNE18.2 kmh NNE 14.5 mph23.3 kmh 29.32 in992.9 mb 0.00 in0.0 mm 0.00 in0.0 mm 0.02 in0.5 mm
08:00 PM 31.1°F-0.5°C 18.9°F-7.3°C 60% 11.2 mph NE18.0 kmh NE 13.6 mph21.9 kmh 29.32 in992.9 mb 0.00 in0.0 mm 0.00 in0.0 mm 0.02 in0.5 mm
08:10 PM 30.9°F-0.6°C 18.7°F-7.4°C 60% 15.3 mph NE24.6 kmh NE 23.5 mph37.8 kmh 29.32 in992.9 mb 0.00 in0.0 mm 0.00 in0.0 mm 0.02 in0.5 mm
08:20 PM 30.9°F-0.6°C 19.1°F-7.2°C 61% 10.5 mph NE16.9 kmh NE 14.5 mph23.3 kmh 29.31 in992.6 mb 0.00 in0.0 mm 0.00 in0.0 mm 0.02 in0.5 mm
08:30 PM 30.7°F-0.7°C 19.3°F-7.1°C 62% 11.5 mph ENE18.5 kmh ENE 15.9 mph25.6 kmh 29.31 in992.6 mb 0.00 in0.0 mm 0.00 in0.0 mm 0.02 in0.5 mm
08:40 PM 30.6°F-0.8°C 19.1°F-7.2°C 62% 12.4 mph NE20.0 kmh NE 16.8 mph27.0 kmh 29.31 in992.6 mb 0.00 in0.0 mm 0.00 in0.0 mm 0.02 in0.5 mm
08:50 PM 30.4°F-0.9°C 19.3°F-7.1°C 63% 14.7 mph ENE23.7 kmh ENE 19.0 mph30.6 kmh 29.32 in992.9 mb 0.00 in0.0 mm 0.00 in0.0 mm 0.02 in0.5 mm
09:00 PM 30.4°F-0.9°C 19.3°F-7.1°C 63% 12.6 mph NE20.3 kmh NE 15.9 mph25.6 kmh 29.32 in992.9 mb 0.00 in0.0 mm 0.00 in0.0 mm 0.02 in0.5 mm
09:10 PM 30.2°F-1.0°C 19.5°F-6.9°C 64% 12.0 mph NE19.3 kmh NE 15.9 mph25.6 kmh 29.31 in992.6 mb 0.00 in0.0 mm 0.00 in0.0 mm 0.02 in0.5 mm
09:20 PM 30.0°F-1.1°C 20.1°F-6.6°C 66% 11.5 mph ENE18.5 kmh ENE 13.6 mph21.9 kmh 29.32 in992.9 mb 0.00 in0.0 mm 0.00 in0.0 mm 0.02 in0.5 mm
09:30 PM 29.8°F-1.2°C 20.6°F-6.3°C 68% 13.1 mph NE21.1 kmh NE 17.4 mph28.0 kmh 29.32 in992.9 mb 0.00 in0.0 mm 0.00 in0.0 mm 0.02 in0.5 mm
09:40 PM 29.7°F-1.3°C 21.1°F-6.1°C 70% 10.5 mph NE16.9 kmh NE 13.0 mph20.9 kmh 29.31 in992.6 mb 0.00 in0.0 mm 0.00 in0.0 mm 0.02 in0.5 mm
09:50 PM 29.7°F-1.3°C 21.1°F-6.1°C 70% 8.3 mph NE13.4 kmh NE 9.8 mph15.8 kmh 29.31 in992.6 mb 0.00 in0.0 mm 0.00 in0.0 mm 0.02 in0.5 mm
10:00 PM 29.5°F-1.4°C 21.3°F-5.9°C 71% 8.6 mph NE13.8 kmh NE 12.1 mph19.5 kmh 29.31 in992.6 mb 0.00 in0.0 mm 0.00 in0.0 mm 0.02 in0.5 mm
10:10 PM 29.3°F-1.5°C 21.4°F-5.9°C 72% 9.2 mph NE14.8 kmh NE 12.1 mph19.5 kmh 29.31 in992.6 mb 0.00 in0.0 mm 0.00 in0.0 mm 0.02 in0.5 mm
10:20 PM 29.1°F-1.6°C 21.6°F-5.8°C 73% 8.3 mph NE13.4 kmh NE 12.1 mph19.5 kmh 29.30 in992.2 mb 0.00 in0.0 mm 0.00 in0.0 mm 0.02 in0.5 mm
10:30 PM 29.3°F-1.5°C 22.1°F-5.5°C 74% 8.3 mph ENE13.4 kmh ENE 13.0 mph20.9 kmh 29.31 in992.6 mb 0.00 in0.0 mm 0.00 in0.0 mm 0.02 in0.5 mm
10:40 PM 29.5°F-1.4°C 22.2°F-5.4°C 74% 8.7 mph E14.0 kmh E 13.0 mph20.9 kmh 29.30 in992.2 mb 0.00 in0.0 mm 0.00 in0.0 mm 0.02 in0.5 mm
10:50 PM 29.5°F-1.4°C 21.9°F-5.6°C 73% 10.5 mph ENE16.9 kmh ENE 13.0 mph20.9 kmh 29.29 in991.9 mb 0.00 in0.0 mm 0.00 in0.0 mm 0.02 in0.5 mm
11:00 PM 29.5°F-1.4°C 21.9°F-5.6°C 73% 10.9 mph ENE17.5 kmh ENE 13.6 mph21.9 kmh 29.30 in992.2 mb 0.00 in0.0 mm 0.00 in0.0 mm 0.02 in0.5 mm
11:10 PM 29.5°F-1.4°C 21.6°F-5.8°C 72% 9.7 mph ENE15.6 kmh ENE 12.1 mph19.5 kmh 29.30 in992.2 mb 0.00 in0.0 mm 0.00 in0.0 mm 0.02 in0.5 mm
11:20 PM 29.3°F-1.5°C 21.7°F-5.7°C 73% 8.3 mph NE13.4 kmh NE 12.1 mph19.5 kmh 29.29 in991.9 mb 0.00 in0.0 mm 0.00 in0.0 mm 0.02 in0.5 mm
11:30 PM 29.3°F-1.5°C 22.1°F-5.5°C 74% 7.9 mph NE12.7 kmh NE 11.4 mph18.3 kmh 29.29 in991.9 mb 0.00 in0.0 mm 0.00 in0.0 mm 0.02 in0.5 mm
11:40 PM 29.1°F-1.6°C 21.9°F-5.6°C 74% 7.2 mph NE11.6 kmh NE 13.0 mph20.9 kmh 29.30 in992.2 mb 0.00 in0.0 mm 0.00 in0.0 mm 0.02 in0.5 mm
11:50 PM 29.3°F-1.5°C 22.4°F-5.3°C 75% 7.4 mph E11.9 kmh E 13.0 mph20.9 kmh 29.29 in991.9 mb 0.00 in0.0 mm 0.00 in0.0 mm 0.02 in0.5 mm